.
WxDataArchive / Data Records for 2006-09-26
2006-09-25 September 2006 2006-09-27

Data Records for Tuesday, 26 September 2006

Time	Temp	Chill	HIndex	Humid	Dewpt	 Wind 	HiWind	WindDir	Rain 	Barom 
-----	----	-----	------	-----	-----	------	------	-------	-----	----- 
00:00	54.1	54.1	54.1	75	46.4	0	0	---	0.00	29.930 
00:05	54.1	54.1	54.1	76	46.7	0	0	---	0.00	29.930 
00:10	53.9	53.9	53.9	76	46.5	0	0	---	0.00	29.930 
00:15	53.6	53.6	53.6	77	46.6	0	0	---	0.00	29.933 
00:20	53.5	53.5	53.5	77	46.5	0	0	---	0.00	29.933 
00:25	53.5	53.5	53.5	77	46.5	0	0	---	0.00	29.933 
00:30	53.6	53.6	53.6	77	46.6	0	0	---	0.00	29.937 
00:35	53.6	53.6	53.6	77	46.6	0	0	---	0.00	29.937 
00:40	53.5	53.5	53.5	77	46.5	0	0	---	0.00	29.937 
00:45	53.2	53.2	53.2	78	46.5	0	0	---	0.00	29.941 
00:50	53.1	53.1	53.1	79	46.8	0	0	---	0.00	29.941 
00:55	52.8	52.8	52.8	80	46.8	0	0	---	0.00	29.941 
01:00	52.6	52.6	52.6	80	46.6	0	0	---	0.00	29.947 
01:05	52.6	52.6	52.6	81	46.9	0	0	---	0.00	29.947 
01:10	52.6	52.6	52.6	81	46.9	0	0	---	0.00	29.947 
01:15	52.6	52.6	52.6	81	46.9	0	0	---	0.00	29.941 
01:20	52.8	52.8	52.8	81	47.1	0	1	248	0.00	29.941 
01:25	52.6	52.6	52.6	81	46.9	0	0	---	0.00	29.941 
01:30	52.6	52.6	52.6	81	46.9	0	0	---	0.00	29.945 
01:35	52.6	52.6	52.6	81	46.9	0	0	---	0.00	29.945 
01:40	52.6	52.6	52.6	81	46.9	0	0	---	0.00	29.945 
01:45	52.8	52.8	52.8	80	46.8	0	0	---	0.00	29.948 
01:50	52.9	52.9	52.9	80	46.9	0	0	---	0.00	29.948 
01:55	52.9	52.9	52.9	80	46.9	0	0	---	0.00	29.948 
02:00	52.9	52.9	52.9	81	47.2	0	0	---	0.00	29.947 
02:05	52.9	52.9	52.9	81	47.2	0	0	---	0.00	29.947 
02:10	52.8	52.8	52.8	82	47.5	0	0	---	0.00	29.947 
02:15	52.6	52.6	52.6	82	47.3	0	0	---	0.00	29.949 
02:20	52.5	52.5	52.5	82	47.2	0	0	---	0.00	29.949 
02:25	52.2	52.2	52.2	83	47.2	0	0	---	0.00	29.949 
02:30	52.0	52.0	52.0	83	47.0	0	0	---	0.00	29.950 
02:35	51.7	51.7	51.7	84	47.0	0	0	---	0.00	29.950 
02:40	51.4	51.4	51.4	84	46.7	0	0	---	0.00	29.950 
02:45	51.0	51.0	51.0	84	46.3	0	0	---	0.00	29.952 
02:50	50.8	50.8	50.8	85	46.5	0	0	---	0.00	29.952 
02:55	50.4	50.4	50.4	85	46.1	0	0	---	0.00	29.952 
03:00	50.2	50.2	50.2	86	46.2	0	0	---	0.00	29.952 
03:05	49.9	49.9	49.9	87	46.2	0	0	---	0.00	29.952 
03:10	49.6	49.6	49.6	88	46.2	0	0	---	0.00	29.952 
03:15	49.4	49.4	49.4	88	46.0	0	0	---	0.00	29.949 
03:20	49.2	49.2	49.2	89	46.1	0	0	---	0.00	29.949 
03:25	48.9	48.9	48.9	89	45.8	0	0	---	0.00	29.949 
03:30	48.6	48.6	48.6	90	45.8	0	0	---	0.00	29.950 
03:35	48.3	48.3	48.3	90	45.5	0	0	---	0.00	29.950 
03:40	48.2	48.2	48.2	91	45.7	0	0	---	0.00	29.950 
03:45	48.0	48.0	48.0	91	45.5	0	0	---	0.00	29.950 
03:50	47.9	47.9	47.9	92	45.7	0	0	---	0.00	29.950 
03:55	47.9	47.9	47.9	92	45.7	0	0	---	0.00	29.950 
04:00	47.9	47.9	47.9	92	45.7	0	0	---	0.00	29.950 
04:05	47.9	47.9	47.9	92	45.7	0	0	---	0.00	29.950 
04:10	47.9	47.9	47.9	93	46.0	0	0	---	0.00	29.950 
04:15	47.9	47.9	47.9	93	46.0	0	0	---	0.00	29.952 
04:20	47.9	47.9	47.9	93	46.0	0	0	---	0.00	29.952 
04:25	47.7	47.7	47.7	93	45.8	0	0	---	0.00	29.952 
04:30	47.7	47.7	47.7	93	45.8	0	0	---	0.00	29.957 
04:35	47.6	47.6	47.6	93	45.7	0	0	---	0.00	29.957 
04:40	47.6	47.6	47.6	93	45.7	0	0	---	0.00	29.957 
04:45	47.4	47.4	47.4	93	45.5	0	0	---	0.00	29.958 
04:50	47.3	47.3	47.3	93	45.4	0	0	---	0.00	29.958 
04:55	47.3	47.3	47.3	94	45.7	0	0	---	0.00	29.958 
05:00	47.1	47.1	47.1	94	45.5	0	0	---	0.00	29.955 
05:05	47.1	47.1	47.1	93	45.2	0	0	---	0.00	29.955 
05:10	47.0	47.0	47.0	94	45.4	0	0	---	0.00	29.955 
05:15	47.0	47.0	47.0	94	45.4	0	0	---	0.00	29.962 
05:20	47.1	47.1	47.1	94	45.5	0	0	---	0.00	29.962 
05:25	47.1	47.1	47.1	94	45.5	0	0	---	0.00	29.962 
05:30	47.1	47.1	47.1	94	45.5	0	0	---	0.00	29.965 
05:35	47.0	47.0	47.0	94	45.4	0	0	---	0.00	29.965 
05:40	46.8	46.8	46.8	94	45.2	0	0	---	0.00	29.965 
05:45	46.7	46.7	46.7	94	45.1	0	0	---	0.00	29.966 
05:50	46.7	46.7	46.7	94	45.1	0	0	---	0.00	29.966 
05:55	46.5	46.5	46.5	94	44.9	0	0	---	0.00	29.966 
06:00	46.5	46.5	46.5	94	44.9	0	0	---	0.00	29.968 
06:05	46.5	46.5	46.5	95	45.1	0	0	---	0.00	29.968 
06:10	46.4	46.4	46.4	95	45.0	0	0	---	0.00	29.968 
06:15	46.5	46.5	46.5	95	45.1	0	0	---	0.00	29.971 
06:20	46.5	46.5	46.5	95	45.1	0	0	---	0.00	29.971 
06:25	46.5	46.5	46.5	95	45.1	0	0	---	0.00	29.971 
06:30	46.4	46.4	46.4	95	45.0	0	0	---	0.00	29.975 
06:35	46.2	46.2	46.2	95	44.8	0	0	---	0.00	29.975 
06:40	46.2	46.2	46.2	95	44.8	0	0	---	0.00	29.975 
06:45	46.2	46.2	46.2	95	44.8	0	0	---	0.00	29.986 
06:50	46.4	46.4	46.4	95	45.0	0	0	---	0.00	29.986 
06:55	46.5	46.5	46.5	96	45.4	0	0	---	0.00	29.986 
07:00	46.7	46.7	46.7	96	45.6	0	0	---	0.00	29.986 
07:05	46.7	46.7	46.7	96	45.6	0	0	---	0.00	29.986 
07:10	46.7	46.7	46.7	96	45.6	0	0	---	0.00	29.986 
07:15	46.5	46.5	46.5	96	45.4	0	0	---	0.00	29.993 
07:20	46.4	46.4	46.4	96	45.3	0	0	---	0.00	29.993 
07:25	46.2	46.2	46.2	96	45.1	0	0	---	0.00	29.993 
07:30	46.1	46.1	46.1	96	45.0	0	0	---	0.00	29.996 
07:35	46.0	46.0	46.0	96	44.9	0	0	---	0.00	29.996 
07:40	45.8	45.8	45.8	96	44.7	0	0	---	0.00	29.996 
07:45	45.7	45.7	45.7	96	44.6	0	0	---	0.00	30.001 
07:50	45.7	45.7	45.7	96	44.6	0	0	---	0.00	30.001 
07:55	45.5	45.5	45.5	96	44.4	0	0	---	0.00	30.001 
08:00	45.5	45.5	45.5	96	44.4	0	0	---	0.00	30.004 
08:05	45.7	45.7	45.7	96	44.6	0	0	---	0.00	30.004 
08:10	46.0	46.0	46.0	96	44.9	0	0	---	0.00	30.004 
08:15	46.1	46.1	46.1	96	45.0	0	0	---	0.00	30.009 
08:20	46.4	46.4	46.4	96	45.3	0	0	---	0.00	30.009 
08:25	46.8	46.8	46.8	96	45.7	0	0	---	0.00	30.009 
08:30	47.1	47.1	47.1	96	46.0	0	0	---	0.00	30.008 
08:35	47.6	47.6	47.6	96	46.5	0	0	---	0.00	30.008 
08:40	48.0	48.0	48.0	97	47.2	0	0	---	0.00	30.008 
08:45	48.6	48.6	48.6	97	47.8	0	0	---	0.00	30.007 
08:50	49.1	49.1	49.1	97	48.3	0	0	---	0.00	30.007 
08:55	49.8	49.8	49.8	97	49.0	0	0	---	0.00	30.007 
09:00	50.2	50.2	50.2	97	49.4	0	2	248	0.00	30.007 
09:05	50.8	50.8	50.8	97	50.0	0	2	248	0.00	30.007 
09:10	51.3	51.3	51.3	94	49.6	1	3	112	0.00	30.007 
09:15	52.0	52.0	52.0	87	48.3	1	3	112	0.00	30.010 
09:20	52.8	52.8	52.8	85	48.4	1	2	112	0.00	30.010 
09:25	53.5	53.5	53.5	82	48.1	2	4	90	0.00	30.010 
09:30	54.1	54.1	54.1	82	48.7	1	3	90	0.00	30.006 
09:35	54.5	54.5	54.5	80	48.5	1	4	112	0.00	30.006 
09:40	54.8	54.8	54.8	80	48.7	1	3	112	0.00	30.006 
09:45	55.3	55.3	55.3	79	48.9	1	3	90	0.00	30.004 
09:50	55.7	55.7	55.7	79	49.3	1	4	90	0.00	30.004 
09:55	56.2	56.2	56.2	79	49.8	1	3	90	0.00	30.004 
10:00	56.7	56.7	56.7	76	49.2	1	4	90	0.00	30.003 
10:05	57.2	57.2	57.2	75	49.3	2	4	90	0.00	30.003 
10:10	58.0	58.0	58.0	74	49.8	2	5	68	0.00	30.003 
10:15	58.7	58.7	58.7	73	50.1	2	4	68	0.00	30.002 
10:20	59.5	59.5	59.5	72	50.5	1	3	68	0.00	30.002 
10:25	60.1	60.1	60.1	70	50.3	1	4	90	0.00	30.002 
10:30	60.9	60.9	60.9	65	49.1	1	4	90	0.00	30.000 
10:35	61.0	61.0	61.0	63	48.3	2	5	90	0.00	30.000 
10:40	61.5	61.5	61.5	63	48.8	1	4	90	0.00	30.000 
10:45	62.0	62.0	62.0	63	49.3	2	4	68	0.00	30.000 
10:50	62.3	62.3	62.3	63	49.5	1	4	90	0.00	30.000 
10:55	62.6	62.6	62.6	63	49.8	2	5	90	0.00	30.000 
11:00	63.1	63.1	63.1	61	49.4	1	3	90	0.00	29.996 
11:05	63.7	63.7	63.7	58	48.6	1	2	90	0.00	29.996 
11:10	64.2	64.2	64.2	55	47.7	2	4	90	0.00	29.996 
11:15	64.3	64.3	64.3	56	48.3	1	4	90	0.00	29.995 
11:20	64.5	64.5	64.5	54	47.5	2	6	112	0.00	29.995 
11:25	64.2	64.2	64.2	55	47.7	2	5	90	0.00	29.995 
11:30	64.3	64.3	64.3	54	47.3	2	5	90	0.00	29.995 
11:35	64.3	64.3	64.3	54	47.3	2	5	90	0.00	29.995 
11:40	64.7	64.7	64.7	53	47.2	2	5	90	0.00	29.995 
11:45	65.5	65.5	65.5	52	47.4	2	4	112	0.00	29.988 
11:50	66.1	66.1	66.1	53	48.5	2	4	90	0.00	29.988 
11:55	66.4	66.4	66.4	50	47.2	2	7	68	0.00	29.988 
12:00	66.9	66.9	66.9	45	44.9	1	3	112	0.00	29.985 
12:05	67.1	67.1	67.1	47	46.2	1	3	112	0.00	29.985 
12:10	66.3	66.3	66.3	52	48.1	1	4	90	0.00	29.985 
12:15	66.1	66.1	66.1	46	44.7	1	4	90	0.00	29.981 
12:20	66.4	66.4	66.4	46	45.0	2	5	90	0.00	29.981 
12:25	66.4	66.4	66.4	45	44.4	1	3	90	0.00	29.981 
12:30	66.6	66.6	66.6	45	44.6	1	3	90	0.00	29.978 
12:35	66.9	66.9	66.9	44	44.3	1	3	90	0.00	29.978 
12:40	67.4	67.4	67.4	46	45.9	2	5	112	0.00	29.978 
12:45	67.8	67.8	67.8	50	48.5	3	5	90	0.00	29.974 
12:50	68.1	68.1	68.1	46	46.5	1	3	90	0.00	29.974 
12:55	68.4	68.4	68.4	42	44.4	2	6	112	0.00	29.974 
13:00	68.8	68.8	68.8	43	45.4	1	4	90	0.00	29.966 
13:05	69.3	69.3	69.3	44	46.4	1	4	90	0.00	29.966 
13:10	69.3	69.3	69.3	41	44.6	1	4	90	0.00	29.966 
13:15	68.9	68.9	68.9	41	44.2	0	3	90	0.00	29.963 
13:20	68.9	68.9	68.9	42	44.9	1	5	90	0.00	29.963 
13:25	68.9	68.9	68.9	41	44.2	1	4	90	0.00	29.963 
13:30	69.3	69.3	69.3	43	45.8	1	2	90	0.00	29.956 
13:35	69.6	69.6	69.6	43	46.1	1	4	90	0.00	29.956 
13:40	70.1	70.1	70.1	43	46.6	1	2	90	0.00	29.956 
13:45	70.3	70.3	70.3	42	46.1	1	4	248	0.00	29.950 
13:50	70.4	70.4	70.4	43	46.8	1	3	90	0.00	29.950 
13:55	70.8	70.8	70.8	40	45.3	1	3	68	0.00	29.950 
14:00	70.9	70.9	70.9	39	44.7	1	4	270	0.00	29.944 
14:05	70.9	70.9	70.9	38	44.0	2	7	90	0.00	29.944 
14:10	70.8	70.8	70.8	41	45.9	1	4	90	0.00	29.944 
14:15	70.6	70.6	70.6	43	47.0	1	3	90	0.00	29.941 
14:20	70.6	70.6	70.6	44	47.6	1	3	90	0.00	29.941 
14:25	71.1	71.1	71.1	43	47.5	0	3	225	0.00	29.941 
14:30	71.3	71.3	71.3	39	45.1	1	3	135	0.00	29.931 
14:35	71.5	71.5	71.5	42	47.2	1	3	135	0.00	29.931 
14:40	71.8	71.8	71.8	43	48.1	1	6	90	0.00	29.931 
14:45	71.6	71.6	71.6	39	45.3	1	3	112	0.00	29.927 
14:50	71.5	71.5	71.5	40	45.9	1	3	270	0.00	29.927 
14:55	71.6	71.6	71.6	42	47.3	1	5	270	0.00	29.927 
15:00	71.5	71.5	71.5	41	46.5	1	2	270	0.00	29.918 
15:05	71.3	71.3	71.3	41	46.4	1	2	135	0.00	29.918 
15:10	71.5	71.5	71.5	42	47.2	0	1	0	0.00	29.918 
15:15	71.6	71.6	71.6	43	47.9	0	2	338	0.00	29.915 
15:20	71.6	71.6	71.6	44	48.5	1	4	112	0.00	29.915 
15:25	71.8	71.8	71.8	44	48.7	1	4	270	0.00	29.915 
15:30	72.1	72.1	72.1	42	47.7	1	2	270	0.00	29.910 
15:35	72.3	72.3	72.3	42	47.9	1	3	248	0.00	29.910 
15:40	72.1	72.1	72.1	42	47.7	1	3	248	0.00	29.910 
15:45	72.1	72.1	72.1	45	49.6	0	2	248	0.00	29.909 
15:50	72.0	72.0	72.0	45	49.5	0	2	248	0.00	29.909 
15:55	72.0	72.0	72.0	42	47.6	1	3	90	0.00	29.909 
16:00	72.0	72.0	72.0	45	49.5	1	4	90	0.00	29.902 
16:05	72.5	72.5	72.5	46	50.5	0	2	225	0.00	29.902 
16:10	72.3	72.3	72.3	43	48.5	1	3	112	0.00	29.902 
16:15	72.3	72.3	72.3	43	48.5	0	2	135	0.00	29.901 
16:20	72.3	72.3	72.3	43	48.5	1	2	135	0.00	29.901 
16:25	72.1	72.1	72.1	46	50.2	0	1	135	0.00	29.901 
16:30	72.0	72.0	72.0	52	53.4	0	1	135	0.00	29.895 
16:35	72.0	72.0	72.0	44	48.9	1	2	135	0.00	29.895 
16:40	72.1	72.1	72.1	44	49.0	0	1	292	0.00	29.895 
16:45	72.0	72.0	72.0	44	48.9	0	1	292	0.00	29.889 
16:50	72.0	72.0	72.0	44	48.9	0	2	292	0.00	29.889 
16:55	72.1	72.1	72.1	46	50.2	0	2	292	0.00	29.889 
17:00	72.3	72.3	72.3	46	50.3	0	1	292	0.00	29.886 
17:05	72.1	72.1	72.1	47	50.7	0	2	338	0.00	29.886 
17:10	72.1	72.1	72.1	46	50.2	0	1	338	0.00	29.886 
17:15	72.1	72.1	72.1	45	49.6	0	1	338	0.00	29.885 
17:20	72.1	72.1	72.1	46	50.2	0	3	0	0.00	29.885 
17:25	72.1	72.1	72.1	46	50.2	1	3	22	0.00	29.885 
17:30	72.0	72.0	72.0	46	50.1	1	2	292	0.00	29.883 
17:35	71.6	71.6	71.6	48	50.9	0	2	270	0.00	29.883 
17:40	71.1	71.1	71.1	47	49.8	0	2	270	0.00	29.883 
17:45	71.1	71.1	71.1	52	52.6	0	1	270	0.00	29.882 
17:50	71.3	71.3	71.3	50	51.7	0	2	270	0.00	29.882 
17:55	71.5	71.5	71.5	50	51.9	1	2	270	0.00	29.882 
18:00	71.6	71.6	71.6	47	50.3	1	3	270	0.00	29.872 
18:05	71.5	71.5	71.5	47	50.2	0	2	270	0.00	29.872 
18:10	71.3	71.3	71.3	48	50.6	0	2	270	0.00	29.872 
18:15	71.1	71.1	71.1	50	51.5	0	0	---	0.00	29.869 
18:20	70.9	70.9	70.9	49	50.8	0	1	270	0.00	29.869 
18:25	70.8	70.8	70.8	50	51.2	0	1	270	0.00	29.869 
18:30	70.4	70.4	70.4	52	51.9	0	1	270	0.00	29.869 
18:35	70.3	70.3	70.3	50	50.8	0	1	270	0.00	29.869 
18:40	69.9	69.9	69.9	51	50.9	0	1	270	0.00	29.869 
18:45	69.8	69.8	69.8	52	51.4	0	1	270	0.00	29.869 
18:50	69.4	69.4	69.4	52	51.0	0	0	---	0.00	29.869 
18:55	69.1	69.1	69.1	53	51.2	0	0	---	0.00	29.869 
19:00	68.6	68.6	68.6	54	51.3	0	0	---	0.00	29.867 
19:05	68.3	68.3	68.3	56	52.0	0	0	---	0.00	29.867 
19:10	67.8	67.8	67.8	58	52.5	0	0	---	0.00	29.867 
19:15	67.3	67.3	67.3	61	53.4	0	0	---	0.00	29.866 
19:20	66.8	66.8	66.8	62	53.4	0	0	---	0.00	29.866 
19:25	66.1	66.1	66.1	63	53.1	0	0	---	0.00	29.866 
19:30	65.6	65.6	65.6	64	53.1	0	0	---	0.00	29.864 
19:35	65.0	65.0	65.0	66	53.4	0	0	---	0.00	29.864 
19:40	64.3	64.3	64.3	67	53.1	0	0	---	0.00	29.864 
19:45	63.9	63.9	63.9	68	53.1	0	0	---	0.00	29.864 
19:50	63.2	63.2	63.2	70	53.2	0	0	---	0.00	29.864 
19:55	62.6	62.6	62.6	71	53.1	0	0	---	0.00	29.864 
20:00	62.1	62.1	62.1	73	53.3	0	0	---	0.00	29.863 
20:05	61.5	61.5	61.5	74	53.1	0	0	---	0.00	29.863 
20:10	61.0	61.0	61.0	76	53.4	0	0	---	0.00	29.863 
20:15	60.5	60.5	60.5	77	53.2	0	0	---	0.00	29.861 
20:20	60.2	60.2	60.2	78	53.3	0	0	---	0.00	29.861 
20:25	59.9	59.9	59.9	79	53.4	0	0	---	0.00	29.861 
20:30	59.5	59.5	59.5	80	53.3	0	0	---	0.00	29.862 
20:35	59.3	59.3	59.3	81	53.5	0	0	---	0.00	29.862 
20:40	59.0	59.0	59.0	82	53.5	0	0	---	0.00	29.862 
20:45	58.9	58.9	58.9	82	53.4	0	0	---	0.00	29.862 
20:50	58.6	58.6	58.6	83	53.4	0	0	---	0.00	29.862 
20:55	58.4	58.4	58.4	83	53.3	0	0	---	0.00	29.862 
21:00	58.3	58.3	58.3	84	53.5	0	0	---	0.00	29.860 
21:05	58.0	58.0	58.0	84	53.2	0	0	---	0.00	29.860 
21:10	57.6	57.6	57.6	85	53.1	0	0	---	0.00	29.860 
21:15	57.5	57.5	57.5	85	53.0	0	0	---	0.00	29.855 
21:20	57.3	57.3	57.3	85	52.8	0	0	---	0.00	29.855 
21:25	57.2	57.2	57.2	86	53.0	0	0	---	0.00	29.855 
21:30	57.0	57.0	57.0	87	53.2	0	0	---	0.00	29.854 
21:35	56.9	56.9	56.9	87	53.1	0	0	---	0.00	29.854 
21:40	56.7	56.7	56.7	87	52.9	0	0	---	0.00	29.854 
21:45	56.7	56.7	56.7	87	52.9	0	0	---	0.00	29.852 
21:50	56.6	56.6	56.6	86	52.5	0	0	---	0.00	29.852 
21:55	56.6	56.6	56.6	86	52.5	0	0	---	0.00	29.852 
22:00	56.6	56.6	56.6	86	52.5	0	0	---	0.00	29.847 
22:05	56.6	56.6	56.6	85	52.1	0	0	---	0.00	29.847 
22:10	56.7	56.7	56.7	84	51.9	0	0	---	0.00	29.847 
22:15	56.9	56.9	56.9	83	51.8	0	0	---	0.00	29.842 
22:20	57.0	57.0	57.0	83	51.9	0	0	---	0.00	29.842 
22:25	57.0	57.0	57.0	82	51.6	0	0	---	0.00	29.842 
22:30	57.0	57.0	57.0	82	51.6	0	0	---	0.00	29.837 
22:35	57.0	57.0	57.0	82	51.6	0	0	---	0.00	29.837 
22:40	57.2	57.2	57.2	81	51.4	0	0	---	0.00	29.837 
22:45	57.3	57.3	57.3	81	51.5	0	0	---	0.00	29.837 
22:50	57.5	57.5	57.5	80	51.4	0	0	---	0.00	29.837 
22:55	57.5	57.5	57.5	80	51.4	0	0	---	0.00	29.837 
23:00	57.5	57.5	57.5	80	51.4	0	0	---	0.00	29.837 
23:05	57.8	57.8	57.8	79	51.3	0	2	270	0.00	29.837 
23:10	58.1	58.1	58.1	78	51.3	0	1	270	0.00	29.837 
23:15	58.3	58.3	58.3	77	51.1	0	2	248	0.00	29.834 
23:20	58.7	58.7	58.7	77	51.5	0	1	248	0.00	29.834 
23:25	59.0	59.0	59.0	76	51.4	1	3	248	0.00	29.834 
23:30	59.3	59.3	59.3	75	51.4	0	3	248	0.00	29.831 
23:35	59.6	59.6	59.6	74	51.3	0	2	248	0.00	29.831 
23:40	59.8	59.8	59.8	74	51.5	0	3	248	0.00	29.831 
23:45	59.9	59.9	59.9	73	51.2	1	4	248	0.00	29.829 
23:50	60.2	60.2	60.2	73	51.5	1	3	270	0.00	29.829 
23:55	60.5	60.5	60.5	72	51.4	1	3	248	0.00	29.829 

CoCoRaHS
IN-AL-39
A2 Web Hosting
Creative Commons License
GoDaddy
Look for:

loaded 2017-12-13 19:47:13 • last modified 2010-11-18 10:43:29
Privacy PolicyDisclaimer
• wx.awcolley.com is powered by PmWiki v.2002016 •
• all content (unless otherwise noted) © 2017 A W Colley